Terminal Aerodrome Forecast
Issued by NWS St Louis, MO

Home | Current Version | Previous Version | Text Only | Print | Product List | Glossary On
Versions: 1 2 3 4 5 6 7 8 9 10 11 12 13 14 15 16 17
739
FTUS43 KLSX 240527
TAFCOU
TAF
KCOU 240527Z 2406/2506 08004KT P6SM BKN015
     FM241000 12008KT P6SM SCT150
     FM241600 13013G23KT P6SM BKN130
     FM250000 15012KT P6SM SCT250=

USA.gov is the U.S. government's official web portal to all federal, state and local government web resources and services.